Hodges Dam (1105, 616) Station Data

Red Flag Warning: No
Fire Weather Zone: 258
SDGE Region: North East
Lat/Lon: 33.044/-117.135

Observations

Time Wind Speed/Gust Temp(F) RH Fuel Moist Fuel Temp(F) Dewpt(F) Tmax(F) Tmin(F) Accum Precip 10-min Precip SL Press(mb)
2/27 11:40pm 213 8 G 16 51° 96% - - 50° 56.6° 47° - - -
2/27 11:20pm 208 5 G 10 52° 96% - - 51° 56.6° 47° - - -
2/27 11:10pm 224 7 G 14 52° 96% - - 51° 56.6° 47° - - -
2/27 11:00pm 211 8 G 15 53° 96% - - 52° 56.6° 47° - - -
2/27 10:50pm 210 7 G 11 53° 96% - - 52° 56.6° 47° - - -
2/27 10:40pm 207 6 G 8 53° 96% - - 52° 56.6° 47° - - -
2/27 10:30pm 199 7 G 9 53° 96% - - 52° 56.6° 47° - - -
2/27 10:20pm 203 5 G 8 53° 96% - - 52° 56.6° 47° - - -
2/27 10:10pm 217 4 G 8 53° 96% - - 52° 56.6° 47° - - -
2/27 10:00pm 209 6 G 10 53° 96% - - 52° 56.6° 47° - - -
2/27 9:50pm 205 7 G 10 53° 96% - - 52° 56.6° 47° - - -
2/27 9:40pm 197 4 G 8 53° 96% - - 52° 56.6° 47° - - -
2/27 9:30pm 200 4 G 7 53° 96% - - 52° 56.6° 47° - - -
2/27 9:20pm 203 9 G 21 53° 96% - - 52° 56.6° 47° - - -
2/27 9:10pm 224 8 G 20 54° 96% - - 53° 56.6° 47° - - -
2/27 9:00pm 239 8 G 12 54° 96% - - 53° 56.6° 47° - - -
2/27 8:50pm 238 7 G 12 54° 96% - - 53° 56.6° 47° - - -
2/27 8:40pm 202 10 G 15 54° 96% - - 53° 56.6° 47° - - -
2/27 8:30pm 196 5 G 7 54° 95% - - 53° 56.6° 47° - - -
2/27 8:20pm 194 6 G 9 54° 95% - - 53° 56.6° 47° - - -
2/27 8:10pm 201 7 G 10 54° 95% - - 53° 56.6° 47° - - -
2/27 8:00pm 205 13 G 27 55° 94% - - 53° 56.6° 47° - - -
2/27 7:50pm 237 11 G 19 55° 94% - - 53° 56.6° 47° - - -
2/27 7:40pm 234 13 G 21 55° 94% - - 53° 56.6° 47° - - -
2/27 7:30pm 236 14 G 22 55° 95% - - 53° 56.6° 47° - - -
2/27 7:20pm 216 13 G 23 55° 94% - - 53° 56.6° 47° - - -
2/27 7:10pm 214 11 G 17 55° 95% - - 53° 56.6° 47° - - -
2/27 7:00pm 222 8 G 13 55° 95% - - 53° 56.6° 47° - - -
2/27 6:50pm 233 11 G 18 55° 94% - - 53° 56.6° 47° - - -
2/27 6:40pm 227 13 G 21 55° 94% - - 53° 56.6° 47° - - -
2/27 6:30pm 238 11 G 23 55° 94% - - 53° 56.6° 47° - - -
2/27 6:20pm 236 10 G 16 55° 93% - - 53° 56.6° 47° - - -
2/27 6:10pm 228 10 G 17 55° 93% - - 53° 56.6° 47° - - -
2/27 6:00pm 236 12 G 20 55° 93% - - 53° 56.6° 47° - - -
2/27 5:50pm 236 13 G 22 55° 93% - - 53° 56.6° 47° - - -
2/27 5:40pm 227 13 G 25 55° 92% - - 53° 56.6° 47° - - -
2/27 5:30pm 228 18 G 26 55° 92% - - 53° 56.6° 47° - - -
2/27 5:20pm 232 17 G 29 55° 92% - - 53° 56.6° 47° - - -
2/27 5:10pm 231 18 G 25 55° 93% - - 53° 56.6° 47° - - -
2/27 5:00pm 228 15 G 26 55° 93% - - 53° 56.6° 47° - - -
2/27 4:50pm 216 13 G 21 55° 93% - - 54° 56.6° 47° - - -
2/27 4:40pm 208 15 G 23 55° 93% - - 54° 56.6° 47° - - -
2/27 4:30pm 213 13 G 22 55° 93% - - 54° 56.6° 47° - - -
2/27 4:20pm 212 11 G 21 55° 93% - - 54° 56.6° 47° - - -
2/27 4:10pm 212 13 G 21 56° 93% - - 54° 56.6° 47° - - -
2/27 4:00pm 223 13 G 21 56° 94% - - 54° 56.6° 47° - - -
2/27 3:50pm 217 15 G 25 56° 94% - - 54° 56.6° 47° - - -
2/27 3:40pm 237 12 G 19 55° 94% - - 54° 56.6° 47° - - -
2/27 3:30pm 235 12 G 20 56° 94% - - 54° 56.6° 47° - - -
2/27 3:20pm 213 13 G 23 56° 93% - - 54° 56.6° 47° - - -
2/27 3:10pm 216 12 G 19 56° 93% - - 54° 56.6° 47° - - -
2/27 3:00pm 211 16 G 24 56° 92% - - 54° 56.6° 47° - - -
2/27 2:50pm 207 16 G 26 56° 92% - - 54° 56.6° 47° - - -
2/27 2:40pm 211 15 G 25 56° 92% - - 54° 56.6° 47° - - -
2/27 2:30pm 214 13 G 26 56° 93% - - 54° 56.6° 47° - - -
2/27 2:20pm 212 16 G 27 56° 93% - - 54° 56.6° 47° - - -
2/27 2:10pm 217 16 G 29 56° 93% - - 54° 56.6° 47° - - -
2/27 2:00pm 223 15 G 24 56° 93% - - 54° 56.6° 47° - - -
2/27 1:50pm 215 14 G 23 56° 93% - - 54° 56.6° 47° - - -
2/27 1:40pm 225 15 G 26 56° 94% - - 54° 56.6° 47° - - -
2/27 1:30pm 215 18 G 29 56° 94% - - 54° 56.6° 47° - - -
2/27 1:20pm 229 16 G 29 56° 95% - - 54° 56.6° 47° - - -
2/27 1:10pm 217 15 G 23 56° 94% - - 54° 56.6° 47° - - -
2/27 1:00pm 218 15 G 26 56° 94% - - 54° 56.6° 47° - - -
2/27 12:50pm 220 15 G 25 56° 94% - - 54° 56.6° 47° - - -
2/27 12:40pm 218 16 G 26 56° 95% - - 54° 56.6° 47° - - -
2/27 12:30pm 224 12 G 25 56° 95% - - 54° 56.6° 47° - - -
2/27 12:20pm 209 13 G 23 55° 95% - - 54° 56.6° 47° - - -
2/27 12:10pm 214 12 G 21 55° 95% - - 54° 56.6° 47° - - -
2/27 12:00pm 213 12 G 18 55° 95% - - 54° 56.6° 47° - - -
2/27 11:50am 219 15 G 28 55° 94% - - 53° 56.6° 47° - - -
2/27 11:40am 215 15 G 27 55° 94% - - 53° 56.6° 47° - - -
2/27 11:30am 215 14 G 23 55° 93% - - 53° 56.6° 47° - - -
2/27 11:20am 205 18 G 28 55° 92% - - 53° 56.6° 47° - - -
2/27 11:10am 213 9 G 20 55° 94% - - 53° 56.6° 47° - - -
2/27 11:00am 226 7 G 12 55° 95% - - 53° 56.6° 47° - - -
2/27 10:50am 225 10 G 18 55° 95% - - 53° 56.6° 47° - - -
2/27 10:40am 212 11 G 18 55° 95% - - 54° 56.6° 47° - - -
2/27 10:30am 236 11 G 16 55° 95% - - 54° 56.6° 47° - - -
2/27 10:20am 241 10 G 19 55° 95% - - 54° 56.6° 47° - - -
2/27 10:10am 224 13 G 27 56° 94% - - 54° 56.6° 47° - - -
2/27 10:00am 223 10 G 23 56° 94% - - 54° 56.6° 47° - - -
2/27 9:50am 211 12 G 19 56° 94% - - 54° 56.6° 47° - - -
2/27 9:40am 214 15 G 24 56° 94% - - 54° 56.4° 47° - - -
2/27 9:30am 217 13 G 22 56° 94% - - 54° 56.4° 47° - - -
2/27 9:20am 213 12 G 23 56° 94% - - 54° 56.4° 47° - - -
2/27 9:10am 210 11 G 17 56° 94% - - 54° 56.4° 47° - - -
2/27 9:00am 204 11 G 19 56° 94% - - 54° 56.4° 47° - - -
2/27 8:50am 212 8 G 17 56° 95% - - 54° 56.4° 47° - - -
2/27 8:40am 210 10 G 15 56° 95% - - 54° 56.4° 47° - - -
2/27 8:30am 216 10 G 14 56° 95% - - 54° 56.3° 47° - - -
2/27 8:20am 217 10 G 16 56° 95% - - 54° 56.3° 47° - - -
2/27 8:10am 222 10 G 15 56° 95% - - 54° 56.3° 47° - - -
2/27 8:00am 216 10 G 19 56° 95% - - 54° 56.2° 47° - - -
2/27 7:50am 222 10 G 17 56° 95% - - 54° 56.2° 47° - - -
2/27 7:40am 217 12 G 20 56° 95% - - 54° 56.2° 47° - - -
2/27 7:30am 208 12 G 21 56° 95% - - 54° 56.2° 47° - - -
2/27 7:20am 223 11 G 17 56° 95% - - 54° 56.2° 47° - - -
2/27 7:10am 215 13 G 21 56° 96% - - 54° 56.2° 47° - - -
2/27 7:00am 223 12 G 21 56° 96% - - 54° 56.1° 47° - - -
2/27 6:50am 219 13 G 21 56° 96% - - 54° 56.1° 47° - - -
2/27 6:40am 217 11 G 19 55° 96% - - 54° 55.9° 47° - - -
2/27 6:30am 218 11 G 16 55° 96% - - 54° 55.7° 47° - - -
2/27 6:20am 225 8 G 15 54° 96% - - 53° 55.2° 47° - - -
2/27 6:10am 196 3 G 7 52° 96% - - 51° 53.7° 47° - - -
2/27 6:00am 52 5 G 8 51° 95% - - 50° 53° 47° - - -
2/27 5:50am 49 5 G 9 51° 95% - - 49° 53° 47° - - -
2/27 5:40am 46 3 G 6 51° 95% - - 50° 53° 47° - - -
2/27 5:30am 38 5 G 10 50° 94% - - 49° 53° 47° - - -
2/27 5:20am 37 8 G 10 51° 93% - - 49° 53° 47° - - -
2/27 5:10am 10 5 G 11 52° 93% - - 50° 53° 47° - - -
2/27 5:00am 16 10 G 15 51° 95% - - 50° 52.5° 47° - - -
2/27 4:50am 28 9 G 12 50° 95% - - 48° 50.5° 47° - - -
2/27 4:40am 38 10 G 14 49° 94% - - 48° 50.5° 47° - - -
2/27 4:30am 40 11 G 13 49° 94% - - 47° 49.7° 47° - - -
2/27 4:20am 40 13 G 17 49° 93% - - 47° 49.7° 47° - - -
2/27 4:10am 40 14 G 17 49° 93% - - 47° 49.7° 47° - - -
2/27 4:00am 36 15 G 18 49° 92% - - 47° 49.7° 47° - - -
2/27 3:50am 37 14 G 17 49° 92% - - 47° 49.5° 47° - - -
2/27 3:40am 36 13 G 16 49° 92% - - 47° 49.4° 47° - - -
2/27 3:30am 31 13 G 16 49° 92% - - 47° 49.4° 47° - - -
2/27 3:20am 32 11 G 17 49° 92% - - 47° 49.4° 47° - - -
2/27 3:10am 37 10 G 13 49° 93% - - 47° 49.2° 47° - - -
2/27 3:00am 38 10 G 13 48° 93% - - 46° 49.2° 47° - - -
2/27 2:50am 36 10 G 13 49° 91% - - 46° 49.2° 47° - - -
2/27 2:40am 27 12 G 15 49° 91% - - 46° 49.2° 47° - - -
2/27 2:30am 32 12 G 16 49° 91% - - 46° 49.1° 47° - - -
2/27 2:20am 34 13 G 18 48° 91% - - 46° 48.9° 47° - - -
2/27 2:10am 31 14 G 19 48° 90% - - 46° 48.9° 47° - - -
2/27 2:00am 36 15 G 20 48° 90% - - 45° 48.9° 47° - - -
2/27 1:50am 32 14 G 18 48° 89% - - 45° 48.9° 47° - - -
2/27 1:40am 37 13 G 16 48° 90% - - 45° 48.8° 47° - - -
2/27 1:30am 37 14 G 17 48° 90% - - 45° 48.8° 47° - - -
2/27 1:20am 37 13 G 17 48° 89% - - 45° 48.8° 47° - - -
2/27 1:10am 37 13 G 16 48° 87% - - 44° 48.8° 47° - - -
2/27 1:00am 35 13 G 16 48° 84% - - 44° 48.8° 47° - - -
2/27 12:50am 36 13 G 16 48° 81% - - 43° 48.8° 47° - - -
2/27 12:40am 37 11 G 15 48° 83% - - 43° 48.4° 47° - - -
2/27 12:30am 41 10 G 13 48° 82% - - 43° 48.4° 47° - - -
2/27 12:20am 47 11 G 14 48° 82% - - 42° 48.4° 47° - - -
2/27 12:10am 45 11 G 13 48° 83% - - 43° 48.3° 47° - - -
2/27 12:00am 37 11 G 13 47° 86% - - 43° 56.7° 45.9° - - -
2/26 11:50pm 48 12 G 16 47° 87% - - 43° 56.7° 45.9° - - -
2/26 11:40pm 36 11 G 13 46° 89% - - 44° 56.7° 45.9° - - -
2/26 11:30pm 26 10 G 12 46° 91% - - 44° 56.7° 45.9° - - -
2/26 11:20pm 30 10 G 12 46° 90% - - 44° 56.7° 45.9° - - -
2/26 11:10pm 34 11 G 14 46° 89% - - 44° 56.7° 46° - - -
2/26 11:00pm 24 9 G 11 47° 88% - - 43° 56.7° 46.2° - - -
2/26 10:50pm 21 9 G 10 47° 87% - - 43° 56.7° 46.2° - - -
2/26 10:40pm 29 9 G 11 47° 87% - - 43° 56.7° 46.2° - - -
2/26 10:30pm 38 10 G 11 47° 87% - - 43° 56.7° 46.3° - - -
2/26 10:20pm 37 9 G 11 47° 86% - - 43° 56.7° 46.7° - - -
2/26 10:10pm 37 8 G 11 47° 85% - - 43° 56.7° 46.8° - - -
2/26 10:00pm 26 9 G 11 48° 85% - - 43° 56.7° 47.2° - - -
2/26 9:50pm 35 9 G 10 48° 84% - - 43° 56.7° 47.5° - - -
2/26 9:40pm 35 8 G 10 48° 83% - - 43° 56.7° 47.6° - - -
2/26 9:30pm 31 9 G 10 48° 81% - - 43° 56.7° 47.7° - - -
2/26 9:20pm 32 6 G 9 49° 78% - - 42° 56.7° 47.8° - - -
2/26 9:10pm 36 3 G 7 50° 73% - - 42° 56.7° 48.4° - - -
2/26 9:00pm 308 1 G 3 51° 71% - - 41° 56.7° 48.4° - - -
2/26 8:50pm 46 0 G 1 50° 71% - - 42° 56.7° 48.4° - - -
2/26 8:40pm 288 1 G 2 51° 71% - - 42° 56.7° 48.4° - - -
2/26 8:30pm 291 1 G 4 51° 71% - - 42° 56.7° 48.4° - - -
2/26 8:20pm 287 3 G 5 51° 71% - - 42° 56.7° 48.4° - - -
2/26 8:10pm 248 2 G 4 51° 71% - - 42° 56.7° 48.4° - - -
2/26 8:00pm 229 5 G 7 51° 71% - - 42° 56.7° 48.4° - - -
2/26 7:50pm 246 3 G 7 51° 72% - - 42° 56.7° 48.4° - - -
2/26 7:40pm 224 3 G 5 51° 73% - - 43° 56.7° 48.4° - - -
2/26 7:30pm 223 4 G 5 51° 72% - - 43° 56.7° 48.4° - - -
2/26 7:20pm 240 3 G 6 51° 74% - - 43° 56.7° 48.4° - - -
2/26 7:10pm 228 1 G 2 51° 74% - - 43° 56.7° 48.4° - - -
2/26 7:00pm 196 1 G 2 50° 75% - - 43° 56.7° 48.4° - - -
2/26 6:50pm 225 2 G 3 50° 76% - - 43° 56.7° 48.4° - - -
2/26 6:40pm 223 2 G 4 50° 77% - - 43° 56.7° 48.4° - - -
2/26 6:30pm 222 3 G 4 50° 76% - - 43° 56.7° 48.4° - - -
2/26 6:20pm 225 4 G 6 51° 75% - - 43° 56.7° 48.4° - - -
2/26 6:10pm 231 4 G 6 51° 74% - - 43° 56.7° 48.4° - - -
2/26 6:00pm 232 6 G 11 52° 72% - - 43° 56.7° 48.4° - - -
2/26 5:50pm 231 7 G 10 52° 72% - - 43° 56.7° 48.4° - - -
2/26 5:40pm 232 9 G 14 52° 71% - - 43° 56.7° 48.4° - - -
2/26 5:30pm 231 9 G 13 53° 70% - - 43° 56.7° 48.4° - - -
2/26 5:20pm 233 10 G 15 53° 69% - - 43° 56.7° 48.4° - - -
2/26 5:10pm 231 11 G 17 54° 67% - - 43° 56.7° 48.4° - - -
2/26 5:00pm 225 13 G 19 54° 66% - - 43° 56.7° 48.4° - - -